sensor_id;sensor_type;location;lat;lon;timestamp;P1;durP1;ratioP1;P2;durP2;ratioP2
6105;SDS011;3083;51.508;7.966;2024-03-02T00:00:48;6.43;;;3.73;;
6105;SDS011;3083;51.508;7.966;2024-03-02T00:03:16;6.73;;;3.37;;
6105;SDS011;3083;51.508;7.966;2024-03-02T00:05:43;9.00;;;4.13;;
6105;SDS011;3083;51.508;7.966;2024-03-02T00:08:11;7.37;;;3.53;;
6105;SDS011;3083;51.508;7.966;2024-03-02T00:10:45;5.30;;;2.93;;
6105;SDS011;3083;51.508;7.966;2024-03-02T00:13:13;5.53;;;3.27;;
6105;SDS011;3083;51.508;7.966;2024-03-02T00:15:41;5.57;;;3.10;;
6105;SDS011;3083;51.508;7.966;2024-03-02T00:18:12;8.93;;;3.13;;
6105;SDS011;3083;51.508;7.966;2024-03-02T00:20:43;5.67;;;3.30;;
6105;SDS011;3083;51.508;7.966;2024-03-02T00:23:10;5.30;;;3.33;;
6105;SDS011;3083;51.508;7.966;2024-03-02T00:25:42;5.90;;;2.87;;
6105;SDS011;3083;51.508;7.966;2024-03-02T00:28:12;5.40;;;3.20;;
6105;SDS011;3083;51.508;7.966;2024-03-02T00:30:52;6.23;;;3.43;;
6105;SDS011;3083;51.508;7.966;2024-03-02T00:33:23;5.73;;;3.23;;
6105;SDS011;3083;51.508;7.966;2024-03-02T00:35:52;5.10;;;2.93;;
6105;SDS011;3083;51.508;7.966;2024-03-02T00:38:20;6.20;;;3.20;;
6105;SDS011;3083;51.508;7.966;2024-03-02T00:40:47;6.57;;;3.13;;
6105;SDS011;3083;51.508;7.966;2024-03-02T00:46:13;5.20;;;2.70;;
6105;SDS011;3083;51.508;7.966;2024-03-02T00:48:45;5.83;;;2.90;;
6105;SDS011;3083;51.508;7.966;2024-03-02T00:51:20;5.60;;;2.70;;
6105;SDS011;3083;51.508;7.966;2024-03-02T00:53:48;6.07;;;3.03;;
6105;SDS011;3083;51.508;7.966;2024-03-02T00:56:15;5.30;;;3.10;;
6105;SDS011;3083;51.508;7.966;2024-03-02T00:58:44;4.90;;;3.00;;
6105;SDS011;3083;51.508;7.966;2024-03-02T01:01:11;7.30;;;3.17;;
6105;SDS011;3083;51.508;7.966;2024-03-02T01:03:38;5.73;;;2.93;;
6105;SDS011;3083;51.508;7.966;2024-03-02T01:06:06;5.00;;;2.67;;
6105;SDS011;3083;51.508;7.966;2024-03-02T01:08:33;5.63;;;2.57;;
6105;SDS011;3083;51.508;7.966;2024-03-02T01:11:00;4.60;;;2.43;;
6105;SDS011;3083;51.508;7.966;2024-03-02T01:13:27;5.40;;;2.90;;
6105;SDS011;3083;51.508;7.966;2024-03-02T01:15:56;8.93;;;3.70;;
6105;SDS011;3083;51.508;7.966;2024-03-02T01:18:23;5.80;;;3.10;;
6105;SDS011;3083;51.508;7.966;2024-03-02T01:20:50;4.80;;;2.60;;
6105;SDS011;3083;51.508;7.966;2024-03-02T01:23:18;5.03;;;2.67;;
6105;SDS011;3083;51.508;7.966;2024-03-02T01:25:45;4.80;;;2.73;;
6105;SDS011;3083;51.508;7.966;2024-03-02T01:28:12;4.27;;;2.40;;
6105;SDS011;3083;51.508;7.966;2024-03-02T01:30:39;5.57;;;3.07;;
6105;SDS011;3083;51.508;7.966;2024-03-02T01:33:08;4.33;;;2.43;;
6105;SDS011;3083;51.508;7.966;2024-03-02T01:35:35;8.80;;;3.07;;
6105;SDS011;3083;51.508;7.966;2024-03-02T01:38:02;5.30;;;2.80;;
6105;SDS011;3083;51.508;7.966;2024-03-02T01:40:31;5.40;;;2.87;;
6105;SDS011;3083;51.508;7.966;2024-03-02T01:42:58;3.63;;;2.30;;
6105;SDS011;3083;51.508;7.966;2024-03-02T01:45:27;5.87;;;2.70;;
6105;SDS011;3083;51.508;7.966;2024-03-02T01:47:54;5.50;;;3.00;;
6105;SDS011;3083;51.508;7.966;2024-03-02T01:50:26;6.77;;;2.87;;
6105;SDS011;3083;51.508;7.966;2024-03-02T01:52:54;4.77;;;2.73;;
6105;SDS011;3083;51.508;7.966;2024-03-02T01:55:21;4.70;;;2.63;;
6105;SDS011;3083;51.508;7.966;2024-03-02T01:57:48;5.93;;;2.77;;
6105;SDS011;3083;51.508;7.966;2024-03-02T02:00:17;4.90;;;2.70;;
6105;SDS011;3083;51.508;7.966;2024-03-02T02:02:44;4.77;;;2.87;;
6105;SDS011;3083;51.508;7.966;2024-03-02T02:05:11;6.33;;;3.00;;
6105;SDS011;3083;51.508;7.966;2024-03-02T02:07:41;3.90;;;2.47;;
6105;SDS011;3083;51.508;7.966;2024-03-02T02:10:09;4.60;;;2.50;;
6105;SDS011;3083;51.508;7.966;2024-03-02T02:12:36;4.97;;;2.10;;
6105;SDS011;3083;51.508;7.966;2024-03-02T02:15:04;4.70;;;2.40;;
6105;SDS011;3083;51.508;7.966;2024-03-02T02:17:47;4.60;;;2.40;;
6105;SDS011;3083;51.508;7.966;2024-03-02T02:20:14;3.87;;;1.97;;
6105;SDS011;3083;51.508;7.966;2024-03-02T02:22:53;3.70;;;2.30;;
6105;SDS011;3083;51.508;7.966;2024-03-02T02:25:21;4.07;;;2.30;;
6105;SDS011;3083;51.508;7.966;2024-03-02T02:27:48;5.73;;;2.60;;
6105;SDS011;3083;51.508;7.966;2024-03-02T02:30:18;4.77;;;2.37;;
6105;SDS011;3083;51.508;7.966;2024-03-02T02:32:46;9.80;;;2.27;;
6105;SDS011;3083;51.508;7.966;2024-03-02T02:35:14;6.47;;;2.90;;
6105;SDS011;3083;51.508;7.966;2024-03-02T02:37:41;5.70;;;2.63;;
6105;SDS011;3083;51.508;7.966;2024-03-02T02:40:11;5.90;;;3.10;;
6105;SDS011;3083;51.508;7.966;2024-03-02T02:42:38;4.53;;;2.73;;
6105;SDS011;3083;51.508;7.966;2024-03-02T02:45:06;5.37;;;2.93;;
6105;SDS011;3083;51.508;7.966;2024-03-02T02:47:33;5.60;;;3.00;;
6105;SDS011;3083;51.508;7.966;2024-03-02T02:50:00;5.30;;;2.90;;
6105;SDS011;3083;51.508;7.966;2024-03-02T02:52:32;5.80;;;3.50;;
6105;SDS011;3083;51.508;7.966;2024-03-02T02:55:01;6.20;;;2.80;;
6105;SDS011;3083;51.508;7.966;2024-03-02T02:57:30;6.10;;;3.07;;
6105;SDS011;3083;51.508;7.966;2024-03-02T03:00:00;6.13;;;3.23;;
6105;SDS011;3083;51.508;7.966;2024-03-02T03:02:35;6.53;;;3.30;;
6105;SDS011;3083;51.508;7.966;2024-03-02T03:05:03;8.00;;;3.47;;
6105;SDS011;3083;51.508;7.966;2024-03-02T03:07:31;6.20;;;3.40;;
6105;SDS011;3083;51.508;7.966;2024-03-02T03:09:58;6.77;;;3.37;;
6105;SDS011;3083;51.508;7.966;2024-03-02T03:12:25;6.67;;;3.67;;
6105;SDS011;3083;51.508;7.966;2024-03-02T03:14:54;6.57;;;3.67;;
6105;SDS011;3083;51.508;7.966;2024-03-02T03:17:21;7.40;;;3.67;;
6105;SDS011;3083;51.508;7.966;2024-03-02T03:19:48;7.20;;;3.70;;
6105;SDS011;3083;51.508;7.966;2024-03-02T03:22:15;9.10;;;4.47;;
6105;SDS011;3083;51.508;7.966;2024-03-02T03:24:42;7.90;;;4.33;;
6105;SDS011;3083;51.508;7.966;2024-03-02T03:27:09;8.20;;;4.10;;
6105;SDS011;3083;51.508;7.966;2024-03-02T03:29:36;6.13;;;3.87;;
6105;SDS011;3083;51.508;7.966;2024-03-02T03:32:05;7.47;;;3.77;;
6105;SDS011;3083;51.508;7.966;2024-03-02T03:34:33;7.00;;;3.80;;
6105;SDS011;3083;51.508;7.966;2024-03-02T03:37:00;6.47;;;3.47;;
6105;SDS011;3083;51.508;7.966;2024-03-02T03:39:26;5.90;;;3.40;;
6105;SDS011;3083;51.508;7.966;2024-03-02T03:41:53;7.07;;;3.53;;
6105;SDS011;3083;51.508;7.966;2024-03-02T03:44:20;8.17;;;4.70;;
6105;SDS011;3083;51.508;7.966;2024-03-02T03:46:47;8.43;;;4.57;;
6105;SDS011;3083;51.508;7.966;2024-03-02T03:49:16;7.07;;;3.63;;
6105;SDS011;3083;51.508;7.966;2024-03-02T03:51:42;7.50;;;3.50;;
6105;SDS011;3083;51.508;7.966;2024-03-02T03:54:09;11.80;;;4.57;;
6105;SDS011;3083;51.508;7.966;2024-03-02T03:56:36;7.33;;;3.80;;
6105;SDS011;3083;51.508;7.966;2024-03-02T03:59:03;8.70;;;3.60;;
6105;SDS011;3083;51.508;7.966;2024-03-02T04:01:30;7.73;;;3.80;;
6105;SDS011;3083;51.508;7.966;2024-03-02T04:03:57;8.00;;;4.27;;
6105;SDS011;3083;51.508;7.966;2024-03-02T04:06:26;5.67;;;3.50;;
6105;SDS011;3083;51.508;7.966;2024-03-02T04:08:52;8.87;;;3.63;;
6105;SDS011;3083;51.508;7.966;2024-03-02T04:11:19;8.00;;;3.87;;
6105;SDS011;3083;51.508;7.966;2024-03-02T04:13:46;8.83;;;3.87;;
6105;SDS011;3083;51.508;7.966;2024-03-02T04:16:13;7.97;;;3.97;;
6105;SDS011;3083;51.508;7.966;2024-03-02T04:18:40;6.33;;;3.73;;
6105;SDS011;3083;51.508;7.966;2024-03-02T04:21:07;8.90;;;4.37;;
6105;SDS011;3083;51.508;7.966;2024-03-02T04:23:36;8.60;;;3.67;;
6105;SDS011;3083;51.508;7.966;2024-03-02T04:26:03;8.80;;;4.80;;
6105;SDS011;3083;51.508;7.966;2024-03-02T04:28:30;7.80;;;4.10;;
6105;SDS011;3083;51.508;7.966;2024-03-02T04:30:57;10.20;;;4.10;;
6105;SDS011;3083;51.508;7.966;2024-03-02T04:33:24;6.83;;;3.77;;
6105;SDS011;3083;51.508;7.966;2024-03-02T04:35:51;8.80;;;4.27;;
6105;SDS011;3083;51.508;7.966;2024-03-02T04:38:18;10.10;;;5.10;;
6105;SDS011;3083;51.508;7.966;2024-03-02T04:40:46;7.87;;;5.23;;
6105;SDS011;3083;51.508;7.966;2024-03-02T04:43:13;11.57;;;6.20;;
6105;SDS011;3083;51.508;7.966;2024-03-02T04:45:41;10.90;;;6.20;;
6105;SDS011;3083;51.508;7.966;2024-03-02T04:48:08;9.40;;;4.80;;
6105;SDS011;3083;51.508;7.966;2024-03-02T04:50:35;10.17;;;5.13;;
6105;SDS011;3083;51.508;7.966;2024-03-02T04:53:02;10.20;;;5.80;;
6105;SDS011;3083;51.508;7.966;2024-03-02T04:55:30;17.33;;;9.80;;
6105;SDS011;3083;51.508;7.966;2024-03-02T04:58:24;18.07;;;10.60;;
6105;SDS011;3083;51.508;7.966;2024-03-02T05:00:51;12.00;;;7.90;;
6105;SDS011;3083;51.508;7.966;2024-03-02T05:03:18;11.80;;;7.07;;
6105;SDS011;3083;51.508;7.966;2024-03-02T05:05:45;10.67;;;7.07;;
6105;SDS011;3083;51.508;7.966;2024-03-02T05:08:12;10.60;;;5.93;;
6105;SDS011;3083;51.508;7.966;2024-03-02T05:10:41;9.73;;;4.90;;
6105;SDS011;3083;51.508;7.966;2024-03-02T05:13:08;10.63;;;4.73;;
6105;SDS011;3083;51.508;7.966;2024-03-02T05:15:35;8.57;;;4.33;;
6105;SDS011;3083;51.508;7.966;2024-03-02T05:18:02;10.93;;;4.73;;
6105;SDS011;3083;51.508;7.966;2024-03-02T05:20:30;9.90;;;5.17;;
6105;SDS011;3083;51.508;7.966;2024-03-02T05:22:57;9.17;;;5.33;;
6105;SDS011;3083;51.508;7.966;2024-03-02T05:25:24;11.23;;;5.70;;
6105;SDS011;3083;51.508;7.966;2024-03-02T05:27:51;9.90;;;5.80;;
6105;SDS011;3083;51.508;7.966;2024-03-02T05:30:18;12.10;;;6.87;;
6105;SDS011;3083;51.508;7.966;2024-03-02T05:32:46;13.13;;;7.30;;
6105;SDS011;3083;51.508;7.966;2024-03-02T05:35:13;18.40;;;9.97;;
6105;SDS011;3083;51.508;7.966;2024-03-02T05:37:40;20.60;;;11.90;;
6105;SDS011;3083;51.508;7.966;2024-03-02T05:40:07;15.30;;;10.30;;
6105;SDS011;3083;51.508;7.966;2024-03-02T05:42:36;16.97;;;9.53;;
6105;SDS011;3083;51.508;7.966;2024-03-02T05:45:03;13.83;;;6.67;;
6105;SDS011;3083;51.508;7.966;2024-03-02T05:47:31;12.13;;;5.90;;
6105;SDS011;3083;51.508;7.966;2024-03-02T05:49:59;12.27;;;4.93;;
6105;SDS011;3083;51.508;7.966;2024-03-02T05:52:27;10.30;;;5.20;;
6105;SDS011;3083;51.508;7.966;2024-03-02T05:54:54;8.23;;;4.83;;
6105;SDS011;3083;51.508;7.966;2024-03-02T05:57:21;8.17;;;4.40;;
6105;SDS011;3083;51.508;7.966;2024-03-02T06:00:10;9.87;;;5.43;;
6105;SDS011;3083;51.508;7.966;2024-03-02T06:02:38;10.23;;;5.00;;
6105;SDS011;3083;51.508;7.966;2024-03-02T06:05:07;9.83;;;4.40;;
6105;SDS011;3083;51.508;7.966;2024-03-02T06:07:34;11.43;;;5.07;;
6105;SDS011;3083;51.508;7.966;2024-03-02T06:10:01;9.73;;;4.83;;
6105;SDS011;3083;51.508;7.966;2024-03-02T06:12:28;9.90;;;4.83;;
6105;SDS011;3083;51.508;7.966;2024-03-02T06:14:57;12.63;;;5.17;;
6105;SDS011;3083;51.508;7.966;2024-03-02T06:17:24;11.37;;;6.23;;
6105;SDS011;3083;51.508;7.966;2024-03-02T06:19:51;11.20;;;5.53;;
6105;SDS011;3083;51.508;7.966;2024-03-02T06:22:19;10.40;;;5.37;;
6105;SDS011;3083;51.508;7.966;2024-03-02T06:24:48;11.57;;;5.80;;
6105;SDS011;3083;51.508;7.966;2024-03-02T06:27:14;15.10;;;5.17;;
6105;SDS011;3083;51.508;7.966;2024-03-02T06:29:41;8.90;;;4.80;;
6105;SDS011;3083;51.508;7.966;2024-03-02T06:32:08;11.17;;;5.50;;
6105;SDS011;3083;51.508;7.966;2024-03-02T06:34:35;11.43;;;4.90;;
6105;SDS011;3083;51.508;7.966;2024-03-02T06:37:02;11.30;;;5.60;;
6105;SDS011;3083;51.508;7.966;2024-03-02T06:39:31;9.07;;;4.93;;
6105;SDS011;3083;51.508;7.966;2024-03-02T06:41:59;11.03;;;5.33;;
6105;SDS011;3083;51.508;7.966;2024-03-02T06:44:26;7.07;;;4.60;;
6105;SDS011;3083;51.508;7.966;2024-03-02T06:46:53;9.30;;;4.87;;
6105;SDS011;3083;51.508;7.966;2024-03-02T06:49:20;10.87;;;5.17;;
6105;SDS011;3083;51.508;7.966;2024-03-02T06:51:47;9.80;;;5.13;;
6105;SDS011;3083;51.508;7.966;2024-03-02T06:54:15;9.97;;;4.70;;
6105;SDS011;3083;51.508;7.966;2024-03-02T06:56:43;9.67;;;5.10;;
6105;SDS011;3083;51.508;7.966;2024-03-02T06:59:10;9.33;;;5.00;;
6105;SDS011;3083;51.508;7.966;2024-03-02T07:01:37;7.87;;;4.80;;
6105;SDS011;3083;51.508;7.966;2024-03-02T07:04:03;9.43;;;5.30;;
6105;SDS011;3083;51.508;7.966;2024-03-02T07:06:31;10.43;;;5.17;;
6105;SDS011;3083;51.508;7.966;2024-03-02T07:08:58;8.50;;;4.73;;
6105;SDS011;3083;51.508;7.966;2024-03-02T07:11:25;7.33;;;4.27;;
6105;SDS011;3083;51.508;7.966;2024-03-02T07:13:53;7.80;;;4.37;;
6105;SDS011;3083;51.508;7.966;2024-03-02T07:16:20;7.00;;;3.97;;
6105;SDS011;3083;51.508;7.966;2024-03-02T07:18:53;8.47;;;4.63;;
6105;SDS011;3083;51.508;7.966;2024-03-02T07:21:21;7.67;;;4.60;;
6105;SDS011;3083;51.508;7.966;2024-03-02T07:23:49;8.67;;;4.20;;
6105;SDS011;3083;51.508;7.966;2024-03-02T07:26:16;6.83;;;3.93;;
6105;SDS011;3083;51.508;7.966;2024-03-02T07:28:44;6.67;;;4.20;;
6105;SDS011;3083;51.508;7.966;2024-03-02T07:31:14;8.93;;;3.73;;
6105;SDS011;3083;51.508;7.966;2024-03-02T07:33:43;6.23;;;3.77;;
6105;SDS011;3083;51.508;7.966;2024-03-02T07:36:10;8.00;;;4.20;;
6105;SDS011;3083;51.508;7.966;2024-03-02T07:38:37;7.93;;;4.30;;
6105;SDS011;3083;51.508;7.966;2024-03-02T07:41:05;8.83;;;3.80;;
6105;SDS011;3083;51.508;7.966;2024-03-02T07:43:32;7.07;;;4.00;;
6105;SDS011;3083;51.508;7.966;2024-03-02T07:45:59;6.70;;;4.30;;
6105;SDS011;3083;51.508;7.966;2024-03-02T07:48:29;6.57;;;3.57;;
6105;SDS011;3083;51.508;7.966;2024-03-02T07:50:56;5.90;;;3.87;;
6105;SDS011;3083;51.508;7.966;2024-03-02T07:53:23;7.50;;;3.90;;
6105;SDS011;3083;51.508;7.966;2024-03-02T07:55:50;6.20;;;3.80;;
6105;SDS011;3083;51.508;7.966;2024-03-02T07:58:17;7.90;;;3.80;;
6105;SDS011;3083;51.508;7.966;2024-03-02T08:00:45;7.83;;;3.80;;
6105;SDS011;3083;51.508;7.966;2024-03-02T08:03:12;7.33;;;4.40;;
6105;SDS011;3083;51.508;7.966;2024-03-02T08:05:41;8.07;;;4.70;;
6105;SDS011;3083;51.508;7.966;2024-03-02T08:08:08;7.30;;;4.00;;
6105;SDS011;3083;51.508;7.966;2024-03-02T08:10:37;6.67;;;3.90;;
6105;SDS011;3083;51.508;7.966;2024-03-02T08:13:04;6.30;;;3.90;;
6105;SDS011;3083;51.508;7.966;2024-03-02T08:15:31;9.80;;;5.20;;
6105;SDS011;3083;51.508;7.966;2024-03-02T08:17:58;6.73;;;3.90;;
6105;SDS011;3083;51.508;7.966;2024-03-02T08:20:25;6.13;;;3.50;;
6105;SDS011;3083;51.508;7.966;2024-03-02T08:22:53;7.90;;;3.70;;
6105;SDS011;3083;51.508;7.966;2024-03-02T08:25:21;6.07;;;3.70;;
6105;SDS011;3083;51.508;7.966;2024-03-02T08:27:48;5.77;;;3.33;;
6105;SDS011;3083;51.508;7.966;2024-03-02T08:30:15;7.43;;;3.57;;
6105;SDS011;3083;51.508;7.966;2024-03-02T08:32:43;7.63;;;3.90;;
6105;SDS011;3083;51.508;7.966;2024-03-02T08:35:10;6.97;;;3.90;;
6105;SDS011;3083;51.508;7.966;2024-03-02T08:37:37;7.03;;;3.40;;
6105;SDS011;3083;51.508;7.966;2024-03-02T08:40:10;5.87;;;3.67;;
6105;SDS011;3083;51.508;7.966;2024-03-02T08:42:37;5.50;;;3.50;;
6105;SDS011;3083;51.508;7.966;2024-03-02T08:45:04;7.30;;;3.67;;
6105;SDS011;3083;51.508;7.966;2024-03-02T08:47:32;6.30;;;3.80;;
6105;SDS011;3083;51.508;7.966;2024-03-02T08:50:00;6.90;;;3.60;;
6105;SDS011;3083;51.508;7.966;2024-03-02T08:52:30;7.10;;;3.43;;
6105;SDS011;3083;51.508;7.966;2024-03-02T08:54:57;5.30;;;3.27;;
6105;SDS011;3083;51.508;7.966;2024-03-02T08:57:25;5.73;;;3.03;;
6105;SDS011;3083;51.508;7.966;2024-03-02T08:59:52;6.00;;;3.03;;
6105;SDS011;3083;51.508;7.966;2024-03-02T09:02:19;5.43;;;3.27;;
6105;SDS011;3083;51.508;7.966;2024-03-02T09:04:46;6.07;;;3.10;;
6105;SDS011;3083;51.508;7.966;2024-03-02T09:07:13;5.73;;;2.57;;
6105;SDS011;3083;51.508;7.966;2024-03-02T09:09:40;4.97;;;2.73;;
6105;SDS011;3083;51.508;7.966;2024-03-02T09:12:07;4.80;;;2.77;;
6105;SDS011;3083;51.508;7.966;2024-03-02T09:14:36;6.33;;;2.93;;
6105;SDS011;3083;51.508;7.966;2024-03-02T09:17:03;5.93;;;2.87;;
6105;SDS011;3083;51.508;7.966;2024-03-02T09:19:30;4.47;;;2.83;;
6105;SDS011;3083;51.508;7.966;2024-03-02T09:21:57;5.33;;;2.40;;
6105;SDS011;3083;51.508;7.966;2024-03-02T09:24:28;5.53;;;2.80;;
6105;SDS011;3083;51.508;7.966;2024-03-02T09:26:55;5.50;;;2.90;;
6105;SDS011;3083;51.508;7.966;2024-03-02T09:29:22;5.33;;;2.63;;
6105;SDS011;3083;51.508;7.966;2024-03-02T09:31:50;5.80;;;3.13;;
6105;SDS011;3083;51.508;7.966;2024-03-02T09:34:17;4.40;;;2.57;;
6105;SDS011;3083;51.508;7.966;2024-03-02T09:36:44;4.20;;;2.50;;
6105;SDS011;3083;51.508;7.966;2024-03-02T09:39:11;9.57;;;3.10;;
6105;SDS011;3083;51.508;7.966;2024-03-02T09:41:39;4.77;;;2.87;;
6105;SDS011;3083;51.508;7.966;2024-03-02T09:44:06;4.60;;;2.63;;
6105;SDS011;3083;51.508;7.966;2024-03-02T09:46:33;4.17;;;2.00;;
6105;SDS011;3083;51.508;7.966;2024-03-02T09:49:03;6.10;;;2.50;;
6105;SDS011;3083;51.508;7.966;2024-03-02T09:51:30;4.63;;;2.50;;
6105;SDS011;3083;51.508;7.966;2024-03-02T09:53:57;3.80;;;2.20;;
6105;SDS011;3083;51.508;7.966;2024-03-02T09:56:27;4.40;;;2.40;;
6105;SDS011;3083;51.508;7.966;2024-03-02T09:58:54;4.40;;;2.47;;
6105;SDS011;3083;51.508;7.966;2024-03-02T10:01:21;3.60;;;2.47;;
6105;SDS011;3083;51.508;7.966;2024-03-02T10:03:48;4.17;;;2.03;;
6105;SDS011;3083;51.508;7.966;2024-03-02T10:06:21;3.53;;;2.10;;
6105;SDS011;3083;51.508;7.966;2024-03-02T10:08:49;5.77;;;2.07;;
6105;SDS011;3083;51.508;7.966;2024-03-02T10:14:04;5.63;;;2.10;;
6105;SDS011;3083;51.508;7.966;2024-03-02T10:16:33;3.80;;;2.10;;
6105;SDS011;3083;51.508;7.966;2024-03-02T10:19:17;4.43;;;2.30;;
6105;SDS011;3083;51.508;7.966;2024-03-02T10:21:46;3.87;;;1.87;;
6105;SDS011;3083;51.508;7.966;2024-03-02T10:24:14;3.40;;;1.63;;
6105;SDS011;3083;51.508;7.966;2024-03-02T10:26:41;4.73;;;2.00;;
6105;SDS011;3083;51.508;7.966;2024-03-02T10:29:08;3.53;;;1.70;;
6105;SDS011;3083;51.508;7.966;2024-03-02T10:31:36;3.00;;;1.50;;
6105;SDS011;3083;51.508;7.966;2024-03-02T10:34:03;2.63;;;1.50;;
6105;SDS011;3083;51.508;7.966;2024-03-02T10:36:31;2.77;;;1.33;;
6105;SDS011;3083;51.508;7.966;2024-03-02T10:39:00;3.17;;;1.53;;
6105;SDS011;3083;51.508;7.966;2024-03-02T10:41:29;3.30;;;1.67;;
6105;SDS011;3083;51.508;7.966;2024-03-02T10:43:59;3.30;;;1.50;;
6105;SDS011;3083;51.508;7.966;2024-03-02T10:46:28;2.50;;;1.30;;
6105;SDS011;3083;51.508;7.966;2024-03-02T10:48:55;3.23;;;1.70;;
6105;SDS011;3083;51.508;7.966;2024-03-02T10:51:24;3.00;;;1.73;;
6105;SDS011;3083;51.508;7.966;2024-03-02T10:53:52;5.43;;;1.93;;
6105;SDS011;3083;51.508;7.966;2024-03-02T10:56:26;2.90;;;1.60;;
6105;SDS011;3083;51.508;7.966;2024-03-02T10:58:55;3.33;;;1.57;;
6105;SDS011;3083;51.508;7.966;2024-03-02T11:01:28;3.00;;;1.53;;
6105;SDS011;3083;51.508;7.966;2024-03-02T11:03:57;3.20;;;1.70;;
6105;SDS011;3083;51.508;7.966;2024-03-02T11:06:27;4.30;;;1.67;;
6105;SDS011;3083;51.508;7.966;2024-03-02T11:08:58;3.93;;;2.20;;
6105;SDS011;3083;51.508;7.966;2024-03-02T11:11:36;3.10;;;1.70;;
6105;SDS011;3083;51.508;7.966;2024-03-02T11:14:07;3.00;;;1.73;;
6105;SDS011;3083;51.508;7.966;2024-03-02T11:16:37;3.83;;;1.80;;
6105;SDS011;3083;51.508;7.966;2024-03-02T11:19:06;3.77;;;2.03;;
6105;SDS011;3083;51.508;7.966;2024-03-02T11:21:36;4.50;;;1.70;;
6105;SDS011;3083;51.508;7.966;2024-03-02T11:27:00;3.70;;;1.90;;
6105;SDS011;3083;51.508;7.966;2024-03-02T11:29:43;5.00;;;1.90;;
6105;SDS011;3083;51.508;7.966;2024-03-02T11:32:17;3.37;;;1.90;;
6105;SDS011;3083;51.508;7.966;2024-03-02T11:34:47;5.37;;;1.80;;
6105;SDS011;3083;51.508;7.966;2024-03-02T11:37:15;5.23;;;2.10;;
6105;SDS011;3083;51.508;7.966;2024-03-02T11:39:44;4.53;;;2.33;;
6105;SDS011;3083;51.508;7.966;2024-03-02T11:42:13;4.20;;;2.17;;
6105;SDS011;3083;51.508;7.966;2024-03-02T11:44:42;5.30;;;2.20;;
6105;SDS011;3083;51.508;7.966;2024-03-02T11:47:12;4.10;;;2.20;;
6105;SDS011;3083;51.508;7.966;2024-03-02T11:49:41;3.23;;;1.87;;
6105;SDS011;3083;51.508;7.966;2024-03-02T11:52:10;5.77;;;2.37;;
6105;SDS011;3083;51.508;7.966;2024-03-02T11:54:39;3.80;;;2.10;;
6105;SDS011;3083;51.508;7.966;2024-03-02T11:57:13;4.30;;;2.20;;
6105;SDS011;3083;51.508;7.966;2024-03-02T11:59:41;4.80;;;2.10;;
6105;SDS011;3083;51.508;7.966;2024-03-02T12:02:12;4.23;;;2.27;;
6105;SDS011;3083;51.508;7.966;2024-03-02T12:04:42;3.87;;;2.13;;
6105;SDS011;3083;51.508;7.966;2024-03-02T12:07:10;3.90;;;2.03;;
6105;SDS011;3083;51.508;7.966;2024-03-02T12:09:39;3.40;;;2.10;;
6105;SDS011;3083;51.508;7.966;2024-03-02T12:12:07;3.70;;;1.67;;
6105;SDS011;3083;51.508;7.966;2024-03-02T12:14:36;4.33;;;1.80;;
6105;SDS011;3083;51.508;7.966;2024-03-02T12:17:04;3.40;;;2.00;;
6105;SDS011;3083;51.508;7.966;2024-03-02T12:19:32;3.13;;;1.90;;
6105;SDS011;3083;51.508;7.966;2024-03-02T12:21:59;3.03;;;1.90;;
6105;SDS011;3083;51.508;7.966;2024-03-02T12:24:27;4.40;;;2.13;;
6105;SDS011;3083;51.508;7.966;2024-03-02T12:26:55;3.20;;;1.93;;
6105;SDS011;3083;51.508;7.966;2024-03-02T12:29:23;3.40;;;2.10;;
6105;SDS011;3083;51.508;7.966;2024-03-02T12:31:52;3.70;;;2.27;;
6105;SDS011;3083;51.508;7.966;2024-03-02T12:34:19;3.60;;;2.07;;
6105;SDS011;3083;51.508;7.966;2024-03-02T12:36:50;4.00;;;2.20;;
6105;SDS011;3083;51.508;7.966;2024-03-02T12:39:18;4.10;;;2.30;;
6105;SDS011;3083;51.508;7.966;2024-03-02T12:41:45;3.30;;;1.93;;
6105;SDS011;3083;51.508;7.966;2024-03-02T12:44:15;3.80;;;1.90;;
6105;SDS011;3083;51.508;7.966;2024-03-02T12:46:42;3.10;;;1.90;;
6105;SDS011;3083;51.508;7.966;2024-03-02T12:49:11;4.07;;;1.80;;
6105;SDS011;3083;51.508;7.966;2024-03-02T12:51:41;3.27;;;2.00;;
6105;SDS011;3083;51.508;7.966;2024-03-02T12:54:09;3.53;;;2.10;;
6105;SDS011;3083;51.508;7.966;2024-03-02T12:56:37;3.23;;;1.60;;
6105;SDS011;3083;51.508;7.966;2024-03-02T12:59:04;3.70;;;1.80;;
6105;SDS011;3083;51.508;7.966;2024-03-02T13:01:31;3.73;;;1.83;;
6105;SDS011;3083;51.508;7.966;2024-03-02T13:03:59;3.50;;;2.00;;
6105;SDS011;3083;51.508;7.966;2024-03-02T13:06:28;3.50;;;1.80;;
6105;SDS011;3083;51.508;7.966;2024-03-02T13:08:55;3.80;;;1.90;;
6105;SDS011;3083;51.508;7.966;2024-03-02T13:11:22;4.50;;;1.70;;
6105;SDS011;3083;51.508;7.966;2024-03-02T13:13:50;3.17;;;1.80;;
6105;SDS011;3083;51.508;7.966;2024-03-02T13:16:18;3.53;;;2.20;;
6105;SDS011;3083;51.508;7.966;2024-03-02T13:18:46;4.40;;;2.13;;
6105;SDS011;3083;51.508;7.966;2024-03-02T13:21:13;3.20;;;1.87;;
6105;SDS011;3083;51.508;7.966;2024-03-02T13:23:42;3.97;;;1.93;;
6105;SDS011;3083;51.508;7.966;2024-03-02T13:26:09;3.80;;;2.40;;
6105;SDS011;3083;51.508;7.966;2024-03-02T13:28:37;5.30;;;2.07;;
6105;SDS011;3083;51.508;7.966;2024-03-02T13:31:04;4.23;;;2.10;;
6105;SDS011;3083;51.508;7.966;2024-03-02T13:33:32;3.30;;;2.10;;
6105;SDS011;3083;51.508;7.966;2024-03-02T13:35:58;5.20;;;2.50;;
6105;SDS011;3083;51.508;7.966;2024-03-02T13:38:26;4.40;;;2.50;;
6105;SDS011;3083;51.508;7.966;2024-03-02T13:40:55;4.13;;;1.97;;
6105;SDS011;3083;51.508;7.966;2024-03-02T13:43:22;3.53;;;2.10;;
6105;SDS011;3083;51.508;7.966;2024-03-02T13:45:49;4.13;;;2.27;;
6105;SDS011;3083;51.508;7.966;2024-03-02T13:48:18;3.43;;;1.90;;
6105;SDS011;3083;51.508;7.966;2024-03-02T13:50:45;4.30;;;2.10;;
6105;SDS011;3083;51.508;7.966;2024-03-02T13:53:12;3.60;;;1.80;;
6105;SDS011;3083;51.508;7.966;2024-03-02T13:55:40;3.50;;;1.90;;
6105;SDS011;3083;51.508;7.966;2024-03-02T13:58:09;3.33;;;1.93;;
6105;SDS011;3083;51.508;7.966;2024-03-02T14:00:37;3.57;;;1.70;;
6105;SDS011;3083;51.508;7.966;2024-03-02T14:03:05;3.50;;;1.60;;
6105;SDS011;3083;51.508;7.966;2024-03-02T14:05:32;3.03;;;1.60;;
6105;SDS011;3083;51.508;7.966;2024-03-02T14:07:59;3.20;;;1.70;;
6105;SDS011;3083;51.508;7.966;2024-03-02T14:10:26;2.90;;;1.80;;
6105;SDS011;3083;51.508;7.966;2024-03-02T14:12:54;3.10;;;1.53;;
6105;SDS011;3083;51.508;7.966;2024-03-02T14:15:23;3.57;;;1.60;;
6105;SDS011;3083;51.508;7.966;2024-03-02T14:17:50;3.00;;;1.60;;
6105;SDS011;3083;51.508;7.966;2024-03-02T14:20:17;3.80;;;1.57;;
6105;SDS011;3083;51.508;7.966;2024-03-02T14:22:47;3.90;;;2.20;;
6105;SDS011;3083;51.508;7.966;2024-03-02T14:25:15;3.07;;;1.70;;
6105;SDS011;3083;51.508;7.966;2024-03-02T14:27:44;3.43;;;1.90;;
6105;SDS011;3083;51.508;7.966;2024-03-02T14:30:13;3.73;;;1.73;;
6105;SDS011;3083;51.508;7.966;2024-03-02T14:32:41;4.17;;;1.80;;
6105;SDS011;3083;51.508;7.966;2024-03-02T14:35:08;3.80;;;1.90;;
6105;SDS011;3083;51.508;7.966;2024-03-02T14:37:36;4.27;;;1.60;;
6105;SDS011;3083;51.508;7.966;2024-03-02T14:40:04;3.03;;;1.60;;
6105;SDS011;3083;51.508;7.966;2024-03-02T14:42:32;4.80;;;1.80;;
6105;SDS011;3083;51.508;7.966;2024-03-02T14:44:59;3.37;;;1.63;;
6105;SDS011;3083;51.508;7.966;2024-03-02T14:47:27;2.83;;;1.50;;
6105;SDS011;3083;51.508;7.966;2024-03-02T14:49:56;4.40;;;1.50;;
6105;SDS011;3083;51.508;7.966;2024-03-02T14:52:23;3.10;;;1.70;;
6105;SDS011;3083;51.508;7.966;2024-03-02T14:54:50;3.37;;;1.87;;
6105;SDS011;3083;51.508;7.966;2024-03-02T14:57:17;3.30;;;1.80;;
6105;SDS011;3083;51.508;7.966;2024-03-02T14:59:43;3.57;;;1.70;;
6105;SDS011;3083;51.508;7.966;2024-03-02T15:02:10;2.67;;;1.47;;
6105;SDS011;3083;51.508;7.966;2024-03-02T15:04:38;2.90;;;1.53;;
6105;SDS011;3083;51.508;7.966;2024-03-02T15:07:06;2.57;;;1.50;;
6105;SDS011;3083;51.508;7.966;2024-03-02T15:09:33;3.30;;;1.90;;
6105;SDS011;3083;51.508;7.966;2024-03-02T15:12:01;3.40;;;1.53;;
6105;SDS011;3083;51.508;7.966;2024-03-02T15:14:28;4.20;;;1.70;;
6105;SDS011;3083;51.508;7.966;2024-03-02T15:16:55;4.10;;;2.10;;
6105;SDS011;3083;51.508;7.966;2024-03-02T15:19:22;3.20;;;1.60;;
6105;SDS011;3083;51.508;7.966;2024-03-02T15:21:49;3.77;;;1.80;;
6105;SDS011;3083;51.508;7.966;2024-03-02T15:24:17;3.87;;;1.90;;
6105;SDS011;3083;51.508;7.966;2024-03-02T15:26:44;3.70;;;1.60;;
6105;SDS011;3083;51.508;7.966;2024-03-02T15:29:11;4.03;;;1.70;;